Time;durP1;ratioP1;P1;durP2;ratioP2;P2;SDS_P1;SDS_P2;PMS_P1;PMS_P2;Temp;Humidity;BMP_temperature;BMP_pressure;BME280_temperature;BME280_humidity;BME280_pressure;Samples;Min_cycle;Max_cycle;Signal;HPM_P1;HPM_P2
2023/09/13 00:00:20;;;;;;;11.48;9.43;;;20.40;99.90;;;;;;4247597;27;20054;-55
2023/09/13 00:02:22;;;;;;;10.85;8.75;;;20.30;99.90;;;;;;4246208;27;20062;-55
2023/09/13 00:04:25;;;;;;;12.45;9.88;;;20.40;99.90;;;;;;4247566;27;20047;-54
2023/09/13 00:06:27;;;;;;;12.32;9.90;;;20.40;99.90;;;;;;4247421;27;20069;-57
2023/09/13 00:08:29;;;;;;;12.93;8.68;;;20.40;99.90;;;;;;4247970;27;20119;-56
2023/09/13 00:10:32;;;;;;;10.93;8.70;;;20.40;99.90;;;;;;4229329;28;20043;-54
2023/09/13 00:12:34;;;;;;;11.00;9.38;;;20.40;99.90;;;;;;4246632;27;20059;-55
2023/09/13 00:14:36;;;;;;;13.57;10.60;;;20.40;99.90;;;;;;4247695;27;20122;-54
2023/09/13 00:16:39;;;;;;;10.48;9.38;;;20.40;99.90;;;;;;4247089;27;20133;-55
2023/09/13 00:18:41;;;;;;;10.90;8.43;;;20.40;99.90;;;;;;4247271;27;20078;-55
2023/09/13 00:20:44;;;;;;;10.82;7.88;;;20.40;99.90;;;;;;4247720;27;20453;-54
2023/09/13 00:22:46;;;;;;;11.95;9.50;;;20.30;99.90;;;;;;4246184;27;20066;-55
2023/09/13 00:24:48;;;;;;;9.48;7.72;;;20.30;99.90;;;;;;4247600;27;20070;-54
2023/09/13 00:26:51;;;;;;;12.35;8.63;;;20.30;99.90;;;;;;4247273;27;20047;-54
2023/09/13 00:28:53;;;;;;;13.30;9.30;;;20.30;99.90;;;;;;4229147;28;20044;-54
2023/09/13 00:30:56;;;;;;;13.75;8.25;;;20.30;99.90;;;;;;4247112;28;20043;-54
2023/09/13 00:32:58;;;;;;;10.02;8.95;;;20.20;99.90;;;;;;4246451;28;20496;-55
2023/09/13 00:35:00;;;;;;;9.75;8.70;;;20.30;99.90;;;;;;4247368;28;20039;-59
2023/09/13 00:37:03;;;;;;;10.27;9.05;;;20.20;99.90;;;;;;4247705;28;20409;-57
2023/09/13 00:39:06;;;;;;;12.02;8.70;;;20.20;99.90;;;;;;4248393;28;20081;-58
2023/09/13 00:41:08;;;;;;;8.68;7.63;;;20.20;99.90;;;;;;4247752;28;20040;-55
2023/09/13 00:43:11;;;;;;;11.05;9.20;;;20.10;99.90;;;;;;4246359;28;20086;-60
2023/09/13 00:45:14;;;;;;;13.90;9.82;;;20.20;99.90;;;;;;4246835;28;20202;-55
2023/09/13 00:47:16;;;;;;;10.55;7.55;;;20.10;99.90;;;;;;4247303;28;20040;-55
2023/09/13 00:49:19;;;;;;;12.20;9.35;;;20.10;99.90;;;;;;4246959;27;20074;-55
2023/09/13 00:51:21;;;;;;;11.40;9.45;;;20.10;99.90;;;;;;4228862;28;20043;-54
2023/09/13 00:53:24;;;;;;;8.90;7.63;;;20.10;99.90;;;;;;4228148;28;20047;-59
2023/09/13 00:55:27;;;;;;;9.75;8.18;;;20.10;99.90;;;;;;4247112;28;20040;-54
2023/09/13 00:57:29;;;;;;;9.82;7.53;;;20.10;99.90;;;;;;4247213;28;20047;-61
2023/09/13 00:59:33;;;;;;;10.77;8.65;;;20.10;99.90;;;;;;4246525;28;20043;-55
2023/09/13 01:01:35;;;;;;;10.35;8.32;;;20.10;99.90;;;;;;4247098;28;20438;-56
2023/09/13 01:03:38;;;;;;;8.60;6.85;;;20.10;99.90;;;;;;4247015;27;20445;-55
2023/09/13 01:05:41;;;;;;;9.68;7.80;;;20.00;99.90;;;;;;4250591;27;20476;-55
2023/09/13 01:07:46;;;;;;;7.20;6.32;;;20.00;99.90;;;;;;4250460;27;20054;-55
2023/09/13 01:09:48;;;;;;;;;;;20.10;99.90;;;;;;4232785;28;20047;-56
2023/09/13 01:11:50;;;;;;;9.45;6.43;;;20.00;99.90;;;;;;4250077;27;19966;-55
2023/09/13 01:13:52;;;;;;;9.82;7.97;;;20.00;99.90;;;;;;4248909;27;20042;-55
2023/09/13 01:16:04;;;;;;;7.53;6.72;;;20.00;99.90;;;;;;4250352;27;20043;-54
2023/09/13 01:18:12;;;;;;;11.38;8.85;;;20.00;99.90;;;;;;4249988;27;20402;-55
2023/09/13 01:20:19;;;;;;;11.85;7.85;;;20.00;99.90;;;;;;4250255;27;20495;-53
2023/09/13 01:22:44;;;;;;;10.88;9.40;;;19.90;99.90;;;;;;4249433;27;20047;-55
2023/09/13 01:25:07;;;;;;;10.13;8.05;;;19.90;99.90;;;;;;4250325;27;20054;-55
2023/09/13 01:27:24;;;;;;;11.63;9.18;;;19.90;99.90;;;;;;4250151;27;20122;-55
2023/09/13 01:29:31;;;;;;;15.18;10.65;;;19.90;99.90;;;;;;4249627;27;20074;-54
2023/09/13 01:31:33;;;;;;;14.98;11.43;;;19.90;99.90;;;;;;4250129;27;20070;-55
2023/09/13 01:33:36;;;;;;;14.00;10.55;;;19.90;99.90;;;;;;4248805;27;20043;-55
2023/09/13 01:35:38;;;;;;;11.07;9.63;;;19.90;99.90;;;;;;4250159;27;20074;-54
2023/09/13 01:37:41;;;;;;;18.70;11.43;;;19.90;99.90;;;;;;4249892;27;20043;-60
2023/09/13 01:39:43;;;;;;;11.02;9.27;;;19.90;99.90;;;;;;4249804;27;20146;-54
2023/09/13 01:41:49;;;;;;;16.75;12.73;;;19.90;99.90;;;;;;4231533;28;20052;-54
2023/09/13 01:43:55;;;;;;;18.38;13.70;;;19.90;99.90;;;;;;4248589;27;20043;-55
2023/09/13 01:45:59;;;;;;;18.25;15.57;;;19.90;99.90;;;;;;4231669;28;20064;-54
2023/09/13 01:48:03;;;;;;;17.15;13.48;;;19.90;99.90;;;;;;4249719;27;20081;-58
2023/09/13 01:50:07;;;;;;;15.18;13.27;;;19.90;99.90;;;;;;4249833;27;20112;-55
2023/09/13 01:52:09;;;;;;;19.98;14.75;;;19.90;99.90;;;;;;4248771;27;20055;-55
2023/09/13 01:54:12;;;;;;;24.08;18.10;;;19.90;99.90;;;;;;4249329;27;20046;-54
2023/09/13 01:56:14;;;;;;;17.88;15.35;;;19.90;99.90;;;;;;4249505;27;20467;-54
2023/09/13 01:58:16;;;;;;;14.18;12.63;;;19.90;99.90;;;;;;4230903;28;20043;-55
2023/09/13 02:00:19;;;;;;;17.98;14.88;;;20.00;99.90;;;;;;4249781;27;20047;-54
2023/09/13 02:02:22;;;;;;;15.18;12.77;;;20.00;99.90;;;;;;4248943;27;20074;-54
2023/09/13 02:04:29;;;;;;;20.35;14.93;;;20.00;99.90;;;;;;4249130;27;20492;-53
2023/09/13 02:06:31;;;;;;;18.75;15.52;;;20.00;99.90;;;;;;4250549;27;20150;-56
2023/09/13 02:08:33;;;;;;;16.65;13.60;;;20.00;99.90;;;;;;4250372;27;20065;-54
2023/09/13 02:10:35;;;;;;;14.95;12.55;;;20.00;99.90;;;;;;4232547;28;20077;-61
2023/09/13 02:12:37;;;;;;;15.48;11.15;;;20.00;99.90;;;;;;4249068;27;20070;-55
2023/09/13 02:14:40;;;;;;;14.50;10.05;;;20.00;99.90;;;;;;4249110;27;20062;-54
2023/09/13 02:16:42;;;;;;;15.50;11.38;;;19.90;99.90;;;;;;4248719;27;20050;-54
2023/09/13 02:18:46;;;;;;;13.80;11.68;;;19.90;99.90;;;;;;4249298;27;20454;-55
2023/09/13 02:20:49;;;;;;;13.10;11.02;;;19.90;99.90;;;;;;4249358;27;20049;-54
2023/09/13 02:22:51;;;;;;;16.55;11.75;;;19.80;99.90;;;;;;4230522;28;20506;-54
2023/09/13 02:24:53;;;;;;;16.58;11.43;;;19.80;99.90;;;;;;4249314;27;20043;-53
2023/09/13 02:26:56;;;;;;;13.93;12.50;;;19.80;99.90;;;;;;4248881;27;20266;-54
2023/09/13 02:28:58;;;;;;;18.83;11.45;;;19.80;99.90;;;;;;4248963;27;20039;-54
2023/09/13 02:31:00;;;;;;;13.82;8.75;;;19.70;99.90;;;;;;4249000;27;20427;-54
2023/09/13 02:33:03;;;;;;;11.43;9.82;;;19.70;99.90;;;;;;4229729;28;20052;-54
2023/09/13 02:35:07;;;;;;;15.07;11.90;;;19.70;99.90;;;;;;4248926;27;20043;-55
2023/09/13 02:37:10;;;;;;;15.05;10.30;;;19.80;99.90;;;;;;4248565;27;20478;-54
2023/09/13 02:39:31;;;;;;;14.30;10.27;;;19.70;99.90;;;;;;4249081;27;20039;-55
2023/09/13 02:41:33;;;;;;;10.10;9.10;;;19.70;99.90;;;;;;4248238;27;20044;-54
2023/09/13 02:43:36;;;;;;;11.77;9.73;;;19.70;99.90;;;;;;4247781;27;20096;-54
2023/09/13 02:45:38;;;;;;;15.27;9.85;;;19.60;99.90;;;;;;4249241;27;20043;-54
2023/09/13 02:47:40;;;;;;;11.60;8.90;;;19.60;99.90;;;;;;4248991;27;20051;-55
2023/09/13 02:49:42;;;;;;;13.65;10.32;;;19.60;99.90;;;;;;4248683;27;20488;-54
2023/09/13 02:51:47;;;;;;;11.82;9.70;;;19.60;99.90;;;;;;4248860;27;20452;-56
2023/09/13 02:53:50;;;;;;;10.85;9.18;;;19.60;99.90;;;;;;4247723;27;20050;-54
2023/09/13 02:55:52;;;;;;;13.65;10.02;;;19.50;99.90;;;;;;4248293;27;20139;-54
2023/09/13 02:57:54;;;;;;;12.48;9.40;;;19.60;99.90;;;;;;4248732;27;20522;-54
2023/09/13 02:59:56;;;;;;;11.20;9.90;;;19.60;99.90;;;;;;4248578;27;20043;-55
2023/09/13 03:01:58;;;;;;;11.23;9.18;;;19.60;99.90;;;;;;4248589;27;20126;-56
2023/09/13 03:04:01;;;;;;;13.13;9.02;;;19.60;99.90;;;;;;4247639;27;20154;-55
2023/09/13 03:06:10;;;;;;;9.32;8.20;;;19.50;99.90;;;;;;4248544;27;20039;-56
2023/09/13 03:08:13;;;;;;;14.50;9.95;;;19.60;99.90;;;;;;4248371;27;20043;-54
2023/09/13 03:10:15;;;;;;;10.80;8.80;;;19.60;99.90;;;;;;4248193;27;20070;-54
2023/09/13 03:12:17;;;;;;;10.00;8.10;;;19.70;99.90;;;;;;4248245;27;20047;-54
2023/09/13 03:14:20;;;;;;;11.95;10.38;;;19.60;99.90;;;;;;4247816;27;20054;-54
2023/09/13 03:16:22;;;;;;;11.98;9.30;;;19.60;99.90;;;;;;4248371;27;20399;-54
2023/09/13 03:18:25;;;;;;;16.63;10.15;;;19.60;99.90;;;;;;4248391;27;20071;-54
2023/09/13 03:20:27;;;;;;;12.15;10.45;;;19.60;99.90;;;;;;4248120;27;20112;-55
2023/09/13 03:22:29;;;;;;;15.18;11.30;;;19.70;99.90;;;;;;4247318;27;20092;-55
2023/09/13 03:24:32;;;;;;;15.25;9.93;;;19.60;99.90;;;;;;4247647;27;20047;-54
2023/09/13 03:26:34;;;;;;;12.98;11.10;;;19.60;99.90;;;;;;4247785;27;20046;-54
2023/09/13 03:28:36;;;;;;;17.27;11.75;;;19.60;99.90;;;;;;4248247;27;20131;-56
2023/09/13 03:30:38;;;;;;;14.43;10.80;;;19.60;99.90;;;;;;4248277;27;20043;-54
2023/09/13 03:32:41;;;;;;;15.25;12.00;;;19.60;99.90;;;;;;4247106;27;20186;-54
2023/09/13 03:34:43;;;;;;;15.00;11.73;;;19.60;99.90;;;;;;4247909;27;20046;-53
2023/09/13 03:36:45;;;;;;;14.02;12.10;;;19.60;99.90;;;;;;4248196;27;20045;-55
2023/09/13 03:38:47;;;;;;;15.35;13.07;;;19.60;99.90;;;;;;4247629;27;20050;-54
2023/09/13 03:40:50;;;;;;;15.05;11.63;;;19.60;99.90;;;;;;4247998;27;20070;-53
2023/09/13 03:42:52;;;;;;;16.92;14.77;;;19.60;99.90;;;;;;4247094;27;20130;-54
2023/09/13 03:44:55;;;;;;;13.07;11.60;;;19.50;99.90;;;;;;4247895;27;20046;-54
2023/09/13 03:46:57;;;;;;;13.40;11.32;;;19.60;99.90;;;;;;4248053;27;20083;-54
2023/09/13 03:48:59;;;;;;;12.70;11.32;;;19.60;99.90;;;;;;4247969;27;20418;-59
2023/09/13 03:51:01;;;;;;;14.82;11.45;;;19.60;99.90;;;;;;4248148;27;20509;-59
2023/09/13 03:53:04;;;;;;;14.23;10.98;;;19.70;99.90;;;;;;4228453;27;20039;-54
2023/09/13 03:55:06;;;;;;;14.20;11.25;;;19.70;99.90;;;;;;4247706;27;20043;-55
2023/09/13 03:57:10;;;;;;;13.48;10.45;;;19.70;99.90;;;;;;4247912;27;20055;-54
2023/09/13 03:59:12;;;;;;;12.48;10.77;;;19.70;99.90;;;;;;4247947;27;20070;-55
2023/09/13 04:01:15;;;;;;;14.57;10.45;;;19.70;99.90;;;;;;4247987;27;20411;-54
2023/09/13 04:03:18;;;;;;;14.77;10.40;;;19.70;99.90;;;;;;4247111;27;20546;-57
2023/09/13 04:05:20;;;;;;;11.40;10.15;;;19.70;99.90;;;;;;4247747;27;20461;-55
2023/09/13 04:07:23;;;;;;;13.85;11.82;;;19.70;99.90;;;;;;4248195;27;20043;-55
2023/09/13 04:09:25;;;;;;;11.20;10.00;;;19.70;99.90;;;;;;4230158;28;20063;-54
2023/09/13 04:11:28;;;;;;;13.45;10.35;;;19.70;99.90;;;;;;4247475;27;20043;-55
2023/09/13 04:13:32;;;;;;;12.40;11.02;;;19.70;99.90;;;;;;4246588;27;20054;-54
2023/09/13 04:15:35;;;;;;;13.63;11.35;;;19.60;99.90;;;;;;4247435;27;20043;-55
2023/09/13 04:17:37;;;;;;;12.85;10.65;;;19.70;99.90;;;;;;4247302;27;20043;-55
2023/09/13 04:19:39;;;;;;;16.13;10.45;;;19.60;99.90;;;;;;4247675;27;20051;-55
2023/09/13 04:21:41;;;;;;;16.20;11.95;;;19.60;99.90;;;;;;4247147;27;20071;-54
2023/09/13 04:23:43;;;;;;;10.27;8.85;;;19.70;99.90;;;;;;4246372;27;20082;-54
2023/09/13 04:25:46;;;;;;;12.30;10.98;;;19.60;99.90;;;;;;4247569;27;20096;-59
2023/09/13 04:27:48;;;;;;;13.70;11.23;;;19.60;99.90;;;;;;4247404;27;20066;-54
2023/09/13 04:29:56;;;;;;;12.15;9.93;;;19.60;99.90;;;;;;4247474;28;20389;-55
2023/09/13 04:31:58;;;;;;;13.75;10.63;;;19.60;99.90;;;;;;4247508;28;20130;-54
2023/09/13 04:34:00;;;;;;;16.60;11.38;;;19.60;99.90;;;;;;4246261;28;20047;-54
2023/09/13 04:36:03;;;;;;;11.75;9.68;;;19.70;99.90;;;;;;4246953;28;20046;-54
2023/09/13 04:38:05;;;;;;;15.50;10.75;;;19.60;99.90;;;;;;4247196;27;20066;-55
2023/09/13 04:40:08;;;;;;;10.98;8.82;;;19.60;99.90;;;;;;4250848;27;20099;-54
2023/09/13 04:42:11;;;;;;;11.82;9.43;;;19.60;99.90;;;;;;4250528;27;20043;-55
2023/09/13 04:44:13;;;;;;;13.23;9.63;;;19.70;99.90;;;;;;4231379;28;20459;-54
2023/09/13 04:46:16;;;;;;;14.18;10.05;;;19.70;99.90;;;;;;4250877;27;20050;-54
2023/09/13 04:48:19;;;;;;;11.95;9.32;;;19.70;99.90;;;;;;4250573;27;20051;-55
2023/09/13 04:50:21;;;;;;;9.25;8.13;;;19.70;99.90;;;;;;4250805;27;20074;-55
2023/09/13 04:52:23;;;;;;;11.70;9.27;;;19.70;99.90;;;;;;4250209;27;20047;-55
2023/09/13 04:54:25;;;;;;;11.27;9.02;;;19.70;99.90;;;;;;4249583;27;20043;-54
2023/09/13 04:56:28;;;;;;;11.07;8.93;;;19.70;99.90;;;;;;4250757;27;20047;-54
2023/09/13 04:58:30;;;;;;;13.48;9.57;;;19.70;99.90;;;;;;4250399;27;20044;-54
2023/09/13 05:00:35;;;;;;;11.68;8.77;;;19.70;99.90;;;;;;4250248;27;20052;-53
2023/09/13 05:02:39;;;;;;;11.20;9.48;;;19.70;99.90;;;;;;4250542;27;20040;-55
2023/09/13 05:04:41;;;;;;;11.05;8.52;;;19.70;99.90;;;;;;4250043;27;20050;-54
2023/09/13 05:06:43;;;;;;;12.70;8.88;;;19.70;99.90;;;;;;4249785;27;20043;-54
2023/09/13 05:08:46;;;;;;;10.75;8.05;;;19.80;99.90;;;;;;4250198;27;20049;-54
2023/09/13 05:10:51;;;;;;;13.73;9.27;;;19.80;99.90;;;;;;4250392;27;20043;-55
2023/09/13 05:12:53;;;;;;;;;;;19.80;99.90;;;;;;4250024;27;20047;-55
2023/09/13 05:14:55;;;;;;;13.88;8.13;;;19.70;99.90;;;;;;4250091;27;19998;-54
2023/09/13 05:16:59;;;;;;;11.05;6.47;;;19.70;99.90;;;;;;4250097;27;20047;-54
2023/09/13 05:19:03;;;;;;;10.00;6.65;;;19.70;99.90;;;;;;4250262;27;20043;-54
2023/09/13 05:21:12;;;;;;;9.82;5.80;;;19.70;99.90;;;;;;4250090;27;20051;-54
2023/09/13 05:23:19;;;;;;;8.90;6.35;;;19.80;99.90;;;;;;4249451;27;20069;-54
2023/09/13 05:25:21;;;;;;;7.95;6.03;;;19.80;99.90;;;;;;4249960;27;20185;-54
2023/09/13 05:27:23;;;;;;;10.45;6.68;;;19.80;99.90;;;;;;4250019;27;20043;-55
2023/09/13 05:29:25;;;;;;;10.00;7.13;;;19.70;99.90;;;;;;4250273;27;20039;-54
2023/09/13 05:31:27;;;;;;;9.43;6.53;;;19.70;99.90;;;;;;4249863;27;20503;-54
2023/09/13 05:33:34;;;;;;;18.52;9.38;;;19.80;99.90;;;;;;4248977;27;20053;-53
2023/09/13 05:35:38;;;;;;;11.68;7.38;;;19.80;99.90;;;;;;4249722;27;20561;-53
2023/09/13 05:37:40;;;;;;;9.55;7.45;;;19.70;99.90;;;;;;4249761;27;20074;-53
2023/09/13 05:39:42;;;;;;;11.05;7.85;;;19.70;99.90;;;;;;4249953;27;20139;-53
2023/09/13 05:41:45;;;;;;;8.18;7.20;;;19.70;99.90;;;;;;4250027;27;20078;-54
2023/09/13 05:43:47;;;;;;;11.80;8.20;;;19.70;99.90;;;;;;4248879;27;20054;-54
2023/09/13 05:45:50;;;;;;;13.52;7.47;;;19.70;99.90;;;;;;4250145;27;20153;-54
2023/09/13 05:47:52;;;;;;;8.98;7.68;;;19.80;99.90;;;;;;4249942;27;20493;-54
2023/09/13 05:49:55;;;;;;;11.40;7.68;;;19.80;99.90;;;;;;4231783;27;20047;-57
2023/09/13 05:51:58;;;;;;;11.90;7.53;;;19.70;99.90;;;;;;4250308;27;20043;-53
2023/09/13 05:54:01;;;;;;;11.05;7.78;;;19.70;99.90;;;;;;4248603;27;20052;-54
2023/09/13 05:56:04;;;;;;;10.25;6.57;;;19.70;99.90;;;;;;4249639;27;20434;-53
2023/09/13 05:58:06;;;;;;;8.50;7.47;;;19.60;99.90;;;;;;4249471;27;20047;-54
2023/09/13 06:00:10;;;;;;;11.55;7.68;;;19.60;99.90;;;;;;4249471;27;20061;-54
2023/09/13 06:02:12;;;;;;;12.77;7.53;;;19.60;99.90;;;;;;4249672;27;20053;-54
2023/09/13 06:04:14;;;;;;;16.65;8.13;;;19.70;99.90;;;;;;4248271;27;20051;-53
2023/09/13 06:06:16;;;;;;;10.45;7.22;;;19.70;99.90;;;;;;4249428;27;20122;-53
2023/09/13 06:08:20;;;;;;;10.75;6.18;;;19.70;99.90;;;;;;4231229;28;20047;-54
2023/09/13 06:10:22;;;;;;;13.90;8.48;;;19.70;99.90;;;;;;4249501;27;20047;-53
2023/09/13 06:12:24;;;;;;;12.00;8.15;;;19.70;99.90;;;;;;4249115;27;20043;-54
2023/09/13 06:14:26;;;;;;;11.57;7.30;;;19.70;99.90;;;;;;4248474;27;20054;-55
2023/09/13 06:16:29;;;;;;;10.10;6.38;;;19.70;99.90;;;;;;4249273;27;20096;-53
2023/09/13 06:18:31;;;;;;;9.48;7.40;;;19.70;99.90;;;;;;4249054;27;20408;-54
2023/09/13 06:20:34;;;;;;;13.10;7.85;;;19.60;99.90;;;;;;4249396;27;20400;-54
2023/09/13 06:22:36;;;;;;;12.38;8.02;;;19.70;99.90;;;;;;4249269;27;20070;-54
2023/09/13 06:24:40;;;;;;;9.23;8.15;;;19.70;99.90;;;;;;4248257;27;20054;-54
2023/09/13 06:26:42;;;;;;;12.20;7.88;;;19.70;99.90;;;;;;4249282;27;20443;-54
2023/09/13 06:28:44;;;;;;;14.05;7.35;;;19.80;99.90;;;;;;4230653;28;20122;-54
2023/09/13 06:30:46;;;;;;;7.97;6.70;;;19.70;99.90;;;;;;4249274;27;20043;-53
2023/09/13 06:33:08;;;;;;;11.75;6.88;;;19.70;99.90;;;;;;4248229;27;20054;-54
2023/09/13 06:35:14;;;;;;;12.18;6.63;;;19.70;99.90;;;;;;4230983;27;20044;-54
2023/09/13 06:37:17;;;;;;;11.20;6.50;;;19.70;99.90;;;;;;4249210;27;20130;-54
2023/09/13 06:39:21;;;;;;;9.82;6.45;;;19.80;99.90;;;;;;4230985;28;20048;-54
2023/09/13 06:41:25;;;;;;;13.02;6.65;;;19.80;99.90;;;;;;4248825;27;20053;-54
2023/09/13 06:43:27;;;;;;;11.88;6.53;;;19.80;99.90;;;;;;4247883;27;20047;-53
2023/09/13 06:45:32;;;;;;;;;;;19.80;99.90;;;;;;4249144;27;20066;-53
2023/09/13 06:47:37;;;;;;;11.60;7.25;;;19.80;99.90;;;;;;4248281;27;20376;-53
2023/09/13 06:49:40;;;;;;;17.33;7.93;;;19.80;99.90;;;;;;4248695;27;20488;-53
2023/09/13 06:51:45;;;;;;;14.85;7.45;;;19.80;99.90;;;;;;4248831;27;20048;-53
2023/09/13 06:53:50;;;;;;;;;;;19.80;99.90;;;;;;4248278;27;20069;-54
2023/09/13 06:55:56;;;;;;;11.75;8.40;;;19.80;99.90;;;;;;4248819;27;20273;-53
2023/09/13 06:58:08;;;;;;;13.48;8.88;;;19.70;99.90;;;;;;4248791;27;20050;-54
2023/09/13 07:00:12;;;;;;;14.80;8.10;;;19.80;99.90;;;;;;4249027;27;20537;-53
2023/09/13 07:02:20;;;;;;;12.80;7.35;;;19.80;99.90;;;;;;4248042;27;20047;-54
2023/09/13 07:04:34;;;;;;;16.77;8.10;;;19.90;99.90;;;;;;4247725;27;20047;-53
2023/09/13 07:06:43;;;;;;;11.40;8.27;;;20.00;99.90;;;;;;4248518;27;20548;-54
2023/09/13 07:08:45;;;;;;;14.40;8.15;;;20.00;99.90;;;;;;4248476;27;20043;-54
2023/09/13 07:10:48;;;;;;;22.67;9.32;;;20.00;99.90;;;;;;4248490;27;20095;-54
2023/09/13 07:12:51;;;;;;;15.10;8.38;;;20.10;99.90;;;;;;4248437;27;20317;-59
2023/09/13 07:14:55;;;;;;;12.63;8.25;;;20.10;99.90;;;;;;4247220;27;20049;-54
2023/09/13 07:16:57;;;;;;;9.90;6.20;;;20.10;99.90;;;;;;4248034;27;20077;-54
2023/09/13 07:19:01;;;;;;;12.45;7.57;;;20.20;99.90;;;;;;4248414;27;20437;-54
2023/09/13 07:21:05;;;;;;;11.10;8.40;;;20.20;99.90;;;;;;4248361;27;20047;-53
2023/09/13 07:23:07;;;;;;;14.85;8.75;;;20.30;99.90;;;;;;4248015;27;20043;-54
2023/09/13 07:25:09;;;;;;;15.68;6.85;;;20.30;99.90;;;;;;4247229;27;20047;-53
2023/09/13 07:27:14;;;;;;;21.08;7.95;;;20.30;99.90;;;;;;4248299;27;20051;-54
2023/09/13 07:29:18;;;;;;;13.52;7.75;;;20.40;99.90;;;;;;4248543;27;20126;-55
2023/09/13 07:31:21;;;;;;;20.92;9.25;;;20.40;99.90;;;;;;4248589;27;20070;-53
2023/09/13 07:33:25;;;;;;;13.10;7.95;;;20.40;99.90;;;;;;4247190;27;20100;-53
2023/09/13 07:35:27;;;;;;;39.78;11.20;;;20.40;99.90;;;;;;4248036;27;20138;-54
2023/09/13 07:37:29;;;;;;;25.13;10.38;;;20.40;99.90;;;;;;4248094;27;20054;-54
2023/09/13 07:39:31;;;;;;;15.23;7.35;;;20.50;99.90;;;;;;4247704;27;20055;-54
2023/09/13 07:41:33;;;;;;;19.98;8.68;;;20.50;99.90;;;;;;4247967;27;20051;-54
2023/09/13 07:43:35;;;;;;;16.55;8.13;;;20.50;99.90;;;;;;4247283;27;20067;-55
2023/09/13 07:45:37;;;;;;;22.80;8.93;;;20.50;99.90;;;;;;4247326;27;20115;-53
2023/09/13 07:47:41;;;;;;;17.02;8.85;;;20.50;99.90;;;;;;4247945;27;20058;-54
2023/09/13 07:49:43;;;;;;;13.38;7.43;;;20.50;99.90;;;;;;4247631;27;20086;-55
2023/09/13 07:51:45;;;;;;;15.73;8.73;;;20.40;99.90;;;;;;4247905;27;20122;-54
2023/09/13 07:53:47;;;;;;;14.02;8.23;;;20.40;99.90;;;;;;4246736;27;20480;-54
2023/09/13 07:55:49;;;;;;;15.43;8.93;;;20.40;99.90;;;;;;4248421;27;20465;-60
2023/09/13 07:57:56;;;;;;;22.90;9.68;;;20.40;99.90;;;;;;4248503;27;20506;-54
2023/09/13 07:59:58;;;;;;;22.65;10.43;;;20.40;99.90;;;;;;4248012;27;20043;-55
2023/09/13 08:02:00;;;;;;;21.38;10.10;;;20.40;99.90;;;;;;4247943;27;20047;-53
2023/09/13 08:04:05;;;;;;;28.80;9.60;;;20.30;99.90;;;;;;4247006;27;20047;-57
2023/09/13 08:06:08;;;;;;;19.35;9.50;;;20.40;99.90;;;;;;4247859;27;20039;-54
2023/09/13 08:08:10;;;;;;;20.15;9.80;;;20.30;99.90;;;;;;4247750;27;20163;-53
2023/09/13 08:10:12;;;;;;;22.75;10.02;;;20.30;99.90;;;;;;4245583;27;20047;-54
2023/09/13 08:12:14;;;;;;;18.63;10.55;;;20.30;99.90;;;;;;4247502;27;20126;-54
2023/09/13 08:14:16;;;;;;;10.85;7.43;;;20.30;99.90;;;;;;4236846;27;20143;-53
2023/09/13 08:16:19;;;;;;;16.80;7.15;;;20.40;99.90;;;;;;4234503;27;20046;-54
2023/09/13 08:18:21;;;;;;;17.73;9.55;;;20.40;99.90;;;;;;4235184;27;20043;-55
2023/09/13 08:20:25;;;;;;;14.85;9.25;;;20.40;99.90;;;;;;4238977;27;20048;-53
2023/09/13 08:22:29;;;;;;;13.05;8.27;;;20.40;99.90;;;;;;4238949;27;20044;-56
2023/09/13 08:24:41;;;;;;;15.40;8.18;;;20.50;99.90;;;;;;4228750;28;20055;-59
2023/09/13 08:26:43;;;;;;;11.23;7.32;;;20.50;99.90;;;;;;4239152;27;20047;-55
2023/09/13 08:28:45;;;;;;;16.63;8.85;;;20.60;99.90;;;;;;4245161;27;20051;-57
2023/09/13 08:30:49;;;;;;;12.45;8.90;;;20.70;99.90;;;;;;4237316;27;20043;-58
2023/09/13 08:32:51;;;;;;;16.30;9.77;;;20.80;99.90;;;;;;4240985;28;20075;-54
2023/09/13 08:34:53;;;;;;;16.73;9.90;;;20.90;99.90;;;;;;4242682;28;20126;-53
2023/09/13 08:36:57;;;;;;;20.67;9.98;;;20.90;99.90;;;;;;4229914;28;20049;-54
2023/09/13 08:38:59;;;;;;;15.43;9.07;;;20.90;99.90;;;;;;4231154;28;20050;-52
2023/09/13 08:41:03;;;;;;;11.98;9.02;;;20.90;99.90;;;;;;4240288;28;20098;-53
2023/09/13 08:43:06;;;;;;;12.57;9.07;;;20.90;99.90;;;;;;4237043;28;20039;-53
2023/09/13 08:45:09;;;;;;;19.20;11.05;;;20.90;99.90;;;;;;4223764;28;20524;-54
2023/09/13 08:47:13;;;;;;;17.77;9.05;;;21.00;99.90;;;;;;4240347;28;20066;-52
2023/09/13 08:49:16;;;;;;;12.93;8.75;;;21.10;99.90;;;;;;4245783;28;20450;-55
2023/09/13 08:51:20;;;;;;;12.50;8.43;;;21.20;99.90;;;;;;4246063;28;20043;-53
2023/09/13 08:53:25;;;;;;;13.60;8.57;;;21.40;99.90;;;;;;4241210;28;20473;-54
2023/09/13 08:55:27;;;;;;;16.30;11.02;;;21.50;99.90;;;;;;4244872;28;20122;-54
2023/09/13 08:57:31;;;;;;;20.77;10.13;;;21.50;99.90;;;;;;4245429;28;20099;-57
2023/09/13 08:59:33;;;;;;;12.52;8.63;;;21.50;99.90;;;;;;4244756;28;20051;-55
2023/09/13 09:01:36;;;;;;;16.40;10.32;;;21.60;99.90;;;;;;4240842;28;20043;-57
2023/09/13 09:03:40;;;;;;;19.75;10.73;;;21.60;99.90;;;;;;4244632;28;20183;-53
2023/09/13 09:05:44;;;;;;;14.52;9.45;;;21.60;99.90;;;;;;4244805;28;20043;-61
2023/09/13 09:07:47;;;;;;;15.80;9.32;;;21.60;99.90;;;;;;4240318;28;20221;-55
2023/09/13 09:09:52;;;;;;;24.80;10.10;;;21.60;99.90;;;;;;4231287;28;20480;-54
2023/09/13 09:11:58;;;;;;;18.50;8.60;;;21.60;99.90;;;;;;4242293;28;20067;-54
2023/09/13 09:14:01;;;;;;;27.63;9.40;;;21.60;99.90;;;;;;4242806;28;20047;-53
2023/09/13 09:16:06;;;;;;;22.65;8.65;;;21.60;99.90;;;;;;4245169;28;20096;-54
2023/09/13 09:18:10;;;;;;;14.43;8.50;;;21.50;99.90;;;;;;4245645;28;20035;-53
2023/09/13 09:20:13;;;;;;;20.48;8.57;;;21.60;99.90;;;;;;4245798;28;20047;-55
2023/09/13 09:22:16;;;;;;;23.80;9.02;;;21.50;99.90;;;;;;4245907;28;20043;-60
2023/09/13 09:24:18;;;;;;;13.05;7.82;;;21.40;99.90;;;;;;4242281;27;20044;-52
2023/09/13 09:26:23;;;;;;;12.45;8.23;;;21.40;99.90;;;;;;4243463;27;20080;-54
2023/09/13 09:28:27;;;;;;;16.58;8.35;;;21.40;99.90;;;;;;4232786;28;20048;-52
2023/09/13 09:30:34;;;;;;;13.27;8.20;;;21.30;99.90;;;;;;4232899;28;20044;-53
2023/09/13 09:32:38;;;;;;;14.18;8.45;;;21.40;99.90;;;;;;4232483;28;20050;-53
2023/09/13 09:34:42;;;;;;;13.90;7.82;;;21.40;99.90;;;;;;4243221;27;20406;-54
2023/09/13 09:36:46;;;;;;;14.82;7.45;;;21.40;99.90;;;;;;4245376;27;20043;-54
2023/09/13 09:38:53;;;;;;;;;;;21.60;99.90;;;;;;4249670;27;20039;-53
2023/09/13 09:40:57;;;;;;;13.48;7.90;;;21.60;99.90;;;;;;4248930;27;19919;-54
2023/09/13 09:43:00;;;;;;;16.45;7.50;;;21.60;99.90;;;;;;4230452;28;20134;-54
2023/09/13 09:45:03;;;;;;;13.23;7.55;;;21.70;99.90;;;;;;4248218;27;20088;-52
2023/09/13 09:47:10;;;;;;;16.65;8.40;;;21.70;99.90;;;;;;4249164;27;20385;-54
2023/09/13 09:49:12;;;;;;;11.02;6.88;;;21.90;99.90;;;;;;4248919;27;20101;-53
2023/09/13 09:51:14;;;;;;;16.58;6.35;;;21.90;99.90;;;;;;4249724;27;20047;-56
2023/09/13 09:53:17;;;;;;;12.65;7.05;;;21.90;99.90;;;;;;4249316;27;20070;-53
2023/09/13 09:55:21;;;;;;;10.30;6.53;;;21.90;99.90;;;;;;4247705;27;20051;-53
2023/09/13 09:57:26;;;;;;;17.83;7.95;;;22.00;99.90;;;;;;4248827;27;20053;-54
2023/09/13 09:59:30;;;;;;;16.85;7.50;;;22.00;99.90;;;;;;4249165;27;20099;-59
2023/09/13 10:01:32;;;;;;;10.45;6.28;;;22.10;99.90;;;;;;4249322;27;20043;-54
2023/09/13 10:03:35;;;;;;;8.43;5.68;;;22.10;99.90;;;;;;4249063;27;20043;-54
2023/09/13 10:05:50;;;;;;;12.63;6.75;;;22.30;99.90;;;;;;4236460;27;20040;-54
2023/09/13 10:07:56;;;;;;;16.55;6.88;;;22.20;99.90;;;;;;4231873;28;20050;-58
2023/09/13 10:09:58;;;;;;;12.07;6.45;;;22.30;99.90;;;;;;4231470;28;20047;-54
2023/09/13 10:12:01;;;;;;;10.63;5.85;;;22.40;99.90;;;;;;4232055;28;20134;-54
2023/09/13 10:14:03;;;;;;;11.10;5.68;;;22.40;99.90;;;;;;4230955;28;20073;-54
2023/09/13 10:16:08;;;;;;;9.43;4.80;;;22.50;99.90;;;;;;4233578;27;20039;-55
2023/09/13 10:18:12;;;;;;;8.85;5.43;;;22.50;99.90;;;;;;4247898;27;20039;-54
2023/09/13 10:20:17;;;;;;;8.32;4.50;;;22.50;99.90;;;;;;4225574;28;20051;-53
2023/09/13 10:22:25;;;;;;;12.98;6.05;;;22.50;99.90;;;;;;4231811;28;20051;-59
2023/09/13 10:24:35;;;;;;;7.03;4.68;;;22.50;99.90;;;;;;4230309;28;20484;-54
2023/09/13 10:26:38;;;;;;;11.00;5.47;;;22.50;99.90;;;;;;4248408;27;20092;-55
2023/09/13 10:28:44;;;;;;;8.70;4.72;;;22.50;99.90;;;;;;4230212;28;20040;-53
2023/09/13 10:30:50;;;;;;;11.13;4.97;;;22.50;99.90;;;;;;4248864;27;20046;-54
2023/09/13 10:32:57;;;;;;;9.98;4.78;;;22.50;99.90;;;;;;4248507;27;20043;-53